Ditton Hill, United Kingdom
Current Conditions -  °F | °C
As of 5:50 PM on Saturday 25 Oct 2014 (Local Time) from EGLL Reporting Station
Scattered Clouds Scattered Clouds  
Wind Chill: 57°   Ceiling: Unl
Heat Index: 57°   Visibility: 6mi
Dew Point: 46°   Wind: 10mph
Humidity: 67%   Direction: 230°SW
Pressure: 30.09"   Gusts: NA
Location:  51.39°N, 0.32°W
Report Text: EGLL 251650Z 23009KT 9999 SCT040 SCT046 14/08 Q1019 NOSIG
Loading
Personal Weather Stations






























Interactive Weather Map
Tropical Storm Tracking
New forecast layout! Learn more

10-Day Weather Forecast

Advertisements
Track Severe Weather on mobile